createdAt,value
2018-08-14T00:00:42.737Z,25.87
2018-08-14T00:03:16.415Z,25.57
2018-08-14T00:05:46.918Z,23.73
2018-08-14T00:08:16.685Z,25.30
2018-08-14T00:10:46.129Z,24.87
2018-08-14T00:13:16.922Z,24.82
2018-08-14T00:15:48.284Z,23.23
2018-08-14T00:18:17.934Z,23.13
2018-08-14T00:20:47.471Z,23.27
2018-08-14T00:23:16.739Z,23.27
2018-08-14T00:25:46.234Z,22.33
2018-08-14T00:28:15.622Z,23.47
2018-08-14T00:30:45.091Z,22.03
2018-08-14T00:33:14.555Z,22.13
2018-08-14T00:35:43.964Z,24.65
2018-08-14T00:38:13.301Z,23.57
2018-08-14T00:40:42.713Z,21.47
2018-08-14T00:43:12.100Z,21.93
2018-08-14T00:45:41.511Z,22.48
2018-08-14T00:48:11.006Z,23.20
2018-08-14T00:50:40.434Z,22.40
2018-08-14T00:53:09.781Z,22.67
2018-08-14T00:55:39.170Z,23.53
2018-08-14T00:58:08.690Z,25.17
2018-08-14T01:00:38.135Z,23.53
2018-08-14T01:03:11.247Z,23.53
2018-08-14T01:05:40.658Z,23.17
2018-08-14T01:08:10.343Z,22.87
2018-08-14T01:10:39.750Z,24.13
2018-08-14T01:13:09.087Z,26.63
2018-08-14T01:15:38.491Z,26.00
2018-08-14T01:18:07.861Z,24.50
2018-08-14T01:20:41.389Z,24.70
2018-08-14T01:23:10.842Z,24.23
2018-08-14T01:25:40.227Z,25.30
2018-08-14T01:28:09.609Z,25.63
2018-08-14T01:30:38.996Z,23.73
2018-08-14T01:33:08.360Z,22.90
2018-08-14T01:35:37.729Z,25.57
2018-08-14T01:38:07.139Z,23.27
2018-08-14T01:40:37.054Z,24.12
2018-08-14T01:43:07.166Z,23.25
2018-08-14T01:45:37.125Z,23.70
2018-08-14T01:48:07.367Z,23.90
2018-08-14T01:50:37.150Z,24.07
2018-08-14T01:53:07.230Z,24.35
2018-08-14T01:55:37.207Z,25.65
2018-08-14T01:58:07.156Z,24.80
2018-08-14T02:00:36.573Z,24.47
2018-08-14T02:03:05.930Z,24.50
2018-08-14T02:05:35.322Z,24.17
2018-08-14T02:08:04.647Z,24.63
2018-08-14T02:10:34.051Z,24.60
2018-08-14T02:13:03.428Z,24.23
2018-08-14T02:15:32.778Z,24.90
2018-08-14T02:18:02.165Z,25.57
2018-08-14T02:20:31.535Z,26.10
2018-08-14T02:23:00.942Z,25.63
2018-08-14T02:25:30.399Z,25.03
2018-08-14T02:27:59.815Z,25.30
2018-08-14T02:30:29.168Z,26.23
2018-08-14T02:32:58.535Z,26.17
2018-08-14T02:35:27.905Z,27.43
2018-08-14T02:37:57.313Z,27.33
2018-08-14T02:40:26.649Z,29.23
2018-08-14T02:42:56.078Z,28.85
2018-08-14T02:45:25.467Z,30.00
2018-08-14T02:47:54.848Z,30.77
2018-08-14T02:50:24.443Z,30.33
2018-08-14T02:52:53.810Z,29.43
2018-08-14T02:55:24.129Z,29.48
2018-08-14T02:57:53.585Z,28.83
2018-08-14T03:00:27.743Z,28.17
2018-08-14T03:02:57.755Z,27.37
2018-08-14T03:05:27.199Z,27.50
2018-08-14T03:07:56.584Z,26.50
2018-08-14T03:10:25.950Z,26.77
2018-08-14T03:12:55.349Z,25.85
2018-08-14T03:15:24.977Z,26.03
2018-08-14T03:17:56.161Z,25.05
2018-08-14T03:20:25.566Z,25.03
2018-08-14T03:22:54.932Z,25.60
2018-08-14T03:25:24.337Z,24.63
2018-08-14T03:27:53.798Z,23.42
2018-08-14T03:30:23.174Z,26.80
2018-08-14T03:32:52.510Z,25.55
2018-08-14T03:35:21.909Z,25.70
2018-08-14T03:37:51.237Z,24.85
2018-08-14T03:40:20.823Z,23.87
2018-08-14T03:42:50.626Z,23.37
2018-08-14T03:45:19.993Z,24.37
2018-08-14T03:47:49.456Z,24.45
2018-08-14T03:50:18.823Z,24.23
2018-08-14T03:52:48.210Z,23.73
2018-08-14T03:55:19.687Z,23.73
2018-08-14T03:57:49.033Z,22.47
2018-08-14T04:00:19.521Z,22.93
2018-08-14T04:02:48.877Z,23.07
2018-08-14T04:05:18.234Z,22.07
2018-08-14T04:07:47.635Z,21.93
2018-08-14T04:10:17.082Z,21.80
2018-08-14T04:12:46.473Z,23.33
2018-08-14T04:15:15.893Z,22.43
2018-08-14T04:17:45.265Z,22.13
2018-08-14T04:20:14.912Z,23.13
2018-08-14T04:22:44.301Z,22.60
2018-08-14T04:25:13.713Z,21.43
2018-08-14T04:27:43.106Z,22.98
2018-08-14T04:30:14.323Z,22.17
2018-08-14T04:32:44.916Z,22.90
2018-08-14T04:35:14.958Z,21.60
2018-08-14T04:37:45.178Z,21.37
2018-08-14T04:40:14.586Z,22.43
2018-08-14T04:42:44.445Z,22.43
2018-08-14T04:45:13.859Z,22.47
2018-08-14T04:47:43.255Z,22.05
2018-08-14T04:50:13.945Z,21.93
2018-08-14T04:52:43.658Z,22.05
2018-08-14T04:55:13.565Z,22.50
2018-08-14T05:00:18.511Z,21.30
2018-08-14T05:02:48.001Z,22.80
2018-08-14T05:05:17.378Z,22.37
2018-08-14T05:07:46.764Z,20.95
2018-08-14T05:10:16.814Z,23.13
2018-08-14T05:12:46.321Z,20.95
2018-08-14T05:15:15.678Z,22.40
2018-08-14T05:17:45.106Z,22.10
2018-08-14T05:20:14.764Z,23.67
2018-08-14T05:22:44.128Z,23.60
2018-08-14T05:25:13.559Z,24.35
2018-08-14T05:27:42.897Z,23.20
2018-08-14T05:30:16.324Z,24.20
2018-08-14T05:32:46.753Z,23.10
2018-08-14T05:35:16.210Z,22.80
2018-08-14T05:37:45.550Z,23.43
2018-08-14T05:40:14.996Z,21.77
2018-08-14T05:42:44.333Z,23.02
2018-08-14T05:45:15.586Z,21.10
2018-08-14T05:47:45.423Z,21.87
2018-08-14T05:50:18.545Z,24.50
2018-08-14T05:52:47.980Z,22.55
2018-08-14T05:55:17.302Z,22.80
2018-08-14T05:57:46.673Z,23.07
2018-08-14T06:00:18.407Z,22.80
2018-08-14T06:02:47.778Z,23.30
2018-08-14T06:05:17.113Z,23.73
2018-08-14T06:07:46.486Z,22.60
2018-08-14T06:10:15.868Z,22.27
2018-08-14T06:12:45.323Z,21.67
2018-08-14T06:15:15.080Z,20.83
2018-08-14T06:17:44.450Z,20.70
2018-08-14T06:20:14.803Z,21.60
2018-08-14T06:22:44.551Z,20.50
2018-08-14T06:25:13.901Z,19.55
2018-08-14T06:27:43.255Z,18.73
2018-08-14T06:30:19.296Z,19.92
2018-08-14T06:32:51.325Z,19.67
2018-08-14T06:35:20.729Z,20.35
2018-08-14T06:37:50.067Z,19.57
2018-08-14T06:40:19.478Z,19.47
2018-08-14T06:42:48.907Z,20.53
2018-08-14T06:45:19.001Z,18.90
2018-08-14T06:47:48.578Z,19.37
2018-08-14T06:50:20.461Z,19.10
2018-08-14T06:52:49.888Z,19.90
2018-08-14T06:55:19.193Z,18.70
2018-08-14T06:57:48.600Z,20.20
2018-08-14T07:00:19.640Z,19.10
2018-08-14T07:02:49.662Z,17.77
2018-08-14T07:05:19.182Z,18.90
2018-08-14T07:07:48.539Z,18.60
2018-08-14T07:10:17.945Z,19.47
2018-08-14T07:12:47.316Z,20.03
2018-08-14T07:15:20.827Z,18.10
2018-08-14T07:17:50.712Z,17.23
2018-08-14T07:20:20.070Z,16.87
2018-08-14T07:22:49.442Z,16.17
2018-08-14T07:25:20.203Z,17.17
2018-08-14T07:27:50.146Z,16.30
2018-08-14T07:30:21.900Z,15.40
2018-08-14T07:32:51.450Z,15.30
2018-08-14T07:35:20.804Z,14.50
2018-08-14T07:37:50.234Z,13.80
2018-08-14T07:40:19.598Z,13.23
2018-08-14T07:42:48.953Z,13.27
2018-08-14T07:45:18.684Z,12.87
2018-08-14T07:47:48.108Z,11.37
2018-08-14T07:50:17.481Z,11.53
2018-08-14T07:52:46.881Z,10.57
2018-08-14T07:55:16.270Z,10.93
2018-08-14T07:57:45.653Z,11.33
2018-08-14T08:00:17.984Z,11.10
2018-08-14T08:02:48.205Z,9.63
2018-08-14T08:05:17.941Z,8.77
2018-08-14T08:07:47.521Z,8.53
2018-08-14T08:10:17.407Z,8.20
2018-08-14T08:12:46.926Z,6.83
2018-08-14T08:15:17.542Z,6.60
2018-08-14T08:17:47.409Z,7.33
2018-08-14T08:20:29.442Z,6.40
2018-08-14T08:25:58.601Z,7.13
2018-08-14T08:28:27.953Z,7.10
2018-08-14T08:30:57.315Z,7.23
2018-08-14T08:33:26.766Z,7.27
2018-08-14T08:35:56.146Z,6.70
2018-08-14T08:44:02.810Z,6.93
2018-08-14T08:46:32.188Z,6.73
2018-08-14T08:49:01.562Z,6.43
2018-08-14T08:52:23.354Z,6.03
2018-08-14T08:58:08.323Z,5.57
2018-08-14T09:00:37.537Z,5.40
2018-08-14T09:03:07.190Z,5.57
2018-08-14T09:05:36.669Z,5.47
2018-08-14T09:08:09.235Z,5.53
2018-08-14T09:10:38.880Z,5.08
2018-08-14T09:13:09.802Z,5.10
2018-08-14T09:15:39.210Z,4.93
2018-08-14T09:18:08.665Z,5.05
2018-08-14T09:20:38.189Z,4.23
2018-08-14T09:23:07.548Z,4.53
2018-08-14T09:25:37.017Z,4.20
2018-08-14T09:28:06.427Z,3.57
2018-08-14T09:30:35.849Z,3.43
2018-08-14T09:33:05.237Z,4.03
2018-08-14T09:35:34.615Z,3.90
2018-08-14T09:41:04.077Z,4.37
2018-08-14T09:43:33.418Z,4.03
2018-08-14T09:46:02.833Z,4.23
2018-08-14T09:48:32.541Z,3.70
2018-08-14T09:51:01.910Z,4.10
2018-08-14T09:53:31.323Z,4.63
2018-08-14T09:56:00.674Z,4.37
2018-08-14T09:58:30.642Z,4.10
2018-08-14T10:01:08.815Z,4.65
2018-08-14T10:04:42.128Z,3.90
2018-08-14T10:07:16.841Z,4.67
2018-08-14T10:09:46.160Z,3.63
2018-08-14T10:12:15.680Z,3.60
2018-08-14T10:14:49.283Z,4.07
2018-08-14T10:17:18.608Z,3.90
2018-08-14T10:19:47.964Z,3.33
2018-08-14T10:22:17.246Z,3.53
2018-08-14T10:24:46.590Z,3.17
2018-08-14T10:27:15.907Z,2.87
2018-08-14T10:29:45.234Z,2.80
2018-08-14T10:32:14.557Z,2.47
2018-08-14T10:34:43.885Z,2.57
2018-08-14T10:37:13.234Z,2.43
2018-08-14T10:39:42.544Z,2.70
2018-08-14T10:42:11.944Z,2.07
2018-08-14T10:44:41.257Z,2.12
2018-08-14T10:47:10.607Z,1.77
2018-08-14T10:49:39.969Z,2.17
2018-08-14T10:52:09.268Z,2.40
2018-08-14T10:54:38.608Z,2.07
2018-08-14T10:57:07.944Z,1.80
2018-08-14T10:59:37.290Z,2.23
2018-08-14T11:02:06.610Z,2.00
2018-08-14T11:04:36.099Z,1.80
2018-08-14T11:07:05.439Z,2.58
2018-08-14T11:09:34.805Z,1.85
2018-08-14T11:12:09.340Z,2.10
2018-08-14T11:14:38.721Z,2.30
2018-08-14T11:17:09.013Z,1.67
2018-08-14T11:19:38.341Z,1.70
2018-08-14T11:22:07.694Z,2.20
2018-08-14T11:24:37.426Z,2.43
2018-08-14T11:27:07.131Z,2.27
2018-08-14T11:29:36.464Z,1.73
2018-08-14T11:32:05.813Z,1.74
2018-08-14T11:34:35.150Z,1.37
2018-08-14T11:37:04.521Z,1.70
2018-08-14T11:39:33.897Z,1.90
2018-08-14T11:42:03.243Z,2.40
2018-08-14T11:44:32.549Z,2.07
2018-08-14T11:47:01.863Z,2.22
2018-08-14T11:49:31.277Z,1.60
2018-08-14T11:52:00.968Z,1.70
2018-08-14T11:54:30.923Z,1.52
2018-08-14T11:57:00.976Z,1.60
2018-08-14T11:59:31.065Z,2.60
2018-08-14T12:02:01.243Z,2.80
2018-08-14T12:04:30.892Z,1.80
2018-08-14T12:07:01.107Z,1.80
2018-08-14T12:09:30.943Z,1.50
2018-08-14T12:12:00.918Z,2.37
2018-08-14T12:14:31.031Z,2.05
2018-08-14T12:17:01.016Z,1.62
2018-08-14T12:19:30.969Z,2.12
2018-08-14T12:22:00.982Z,1.80
2018-08-14T12:24:30.967Z,2.50
2018-08-14T12:27:01.076Z,1.70
2018-08-14T12:29:30.986Z,1.90
2018-08-14T12:32:01.043Z,1.47
2018-08-14T12:34:30.949Z,1.30
2018-08-14T12:37:01.025Z,1.30
2018-08-14T12:39:30.954Z,1.07
2018-08-14T12:42:01.026Z,1.02
2018-08-14T12:44:31.035Z,1.50
2018-08-14T12:47:01.043Z,1.12
2018-08-14T12:49:31.052Z,1.00
2018-08-14T12:52:01.040Z,1.10
2018-08-14T12:54:31.066Z,1.17
2018-08-14T12:57:01.093Z,1.20
2018-08-14T12:59:31.105Z,1.60
2018-08-14T13:02:01.110Z,1.20
2018-08-14T13:04:31.042Z,1.70
2018-08-14T13:07:00.991Z,1.60
2018-08-14T13:09:31.065Z,2.08
2018-08-14T13:12:01.140Z,1.92
2018-08-14T13:14:31.099Z,2.05
2018-08-14T13:17:01.530Z,1.92
2018-08-14T13:19:31.163Z,2.15
2018-08-14T13:22:02.761Z,2.33
2018-08-14T13:24:32.181Z,2.23
2018-08-14T13:27:01.523Z,2.40
2018-08-14T13:29:31.115Z,1.87
2018-08-14T13:32:01.221Z,2.17
2018-08-14T13:34:31.229Z,1.90
2018-08-14T13:37:01.337Z,2.02
2018-08-14T13:39:31.152Z,3.87
2018-08-14T13:42:01.130Z,2.63
2018-08-14T13:44:31.129Z,4.17
2018-08-14T13:47:01.231Z,3.12
2018-08-14T13:49:31.229Z,2.92
2018-08-14T13:52:01.198Z,2.40
2018-08-14T13:54:31.189Z,2.37
2018-08-14T13:57:01.198Z,2.15
2018-08-14T13:59:31.199Z,1.87
2018-08-14T14:02:01.207Z,1.95
2018-08-14T14:04:31.198Z,2.00
2018-08-14T14:07:01.264Z,1.75
2018-08-14T14:09:31.249Z,2.05
2018-08-14T14:12:01.246Z,1.70
2018-08-14T14:14:31.277Z,1.50
2018-08-14T14:17:01.174Z,1.25
2018-08-14T14:19:31.240Z,1.15
2018-08-14T14:22:01.252Z,1.10
2018-08-14T14:24:31.250Z,1.20
2018-08-14T14:27:01.289Z,1.40
2018-08-14T14:29:31.324Z,1.02
2018-08-14T14:32:01.270Z,1.12
2018-08-14T14:34:31.330Z,1.00
2018-08-14T14:37:01.264Z,0.90
2018-08-14T14:39:31.272Z,1.10
2018-08-14T14:42:01.269Z,1.20
2018-08-14T14:44:31.330Z,1.07
2018-08-14T14:47:01.341Z,1.02
2018-08-14T14:49:31.380Z,0.90
2018-08-14T14:52:01.377Z,1.00
2018-08-14T14:54:31.294Z,1.20
2018-08-14T14:57:01.355Z,1.15
2018-08-14T14:59:31.418Z,1.17
2018-08-14T15:02:01.353Z,1.12
2018-08-14T15:04:31.401Z,0.90
2018-08-14T15:07:01.453Z,0.82
2018-08-14T15:09:31.430Z,0.90
2018-08-14T15:12:01.393Z,1.10
2018-08-14T15:14:31.354Z,0.80
2018-08-14T15:17:01.315Z,0.90
2018-08-14T15:19:31.478Z,0.78
2018-08-14T15:22:01.492Z,0.95
2018-08-14T15:24:31.494Z,1.02
2018-08-14T15:27:01.393Z,0.90
2018-08-14T15:29:31.415Z,0.97
2018-08-14T15:32:02.932Z,0.98
2018-08-14T15:34:33.561Z,1.07
2018-08-14T15:37:06.453Z,1.17
2018-08-14T15:39:35.781Z,0.90
2018-08-14T15:42:05.674Z,0.70
2018-08-14T15:44:35.058Z,0.70
2018-08-14T15:47:04.440Z,0.80
2018-08-14T15:49:33.934Z,1.00
2018-08-14T15:52:03.143Z,1.10
2018-08-14T15:54:32.450Z,1.07
2018-08-14T15:57:01.750Z,0.90
2018-08-14T15:59:31.499Z,0.70
2018-08-14T16:02:01.465Z,0.90
2018-08-14T16:04:31.521Z,0.82
2018-08-14T16:07:01.593Z,1.15
2018-08-14T16:09:31.447Z,0.80
2018-08-14T16:12:01.647Z,1.17
2018-08-14T16:14:31.547Z,0.98
2018-08-14T16:17:01.638Z,0.98
2018-08-14T16:19:31.557Z,0.82
2018-08-14T16:24:29.565Z,0.77
2018-08-14T16:26:58.953Z,0.80
2018-08-14T16:29:28.254Z,0.73
2018-08-14T16:31:58.009Z,0.70
2018-08-14T16:34:27.285Z,0.90
2018-08-14T16:36:56.594Z,0.90
2018-08-14T16:39:25.913Z,1.20
2018-08-14T16:41:55.281Z,0.90
2018-08-14T16:44:24.606Z,1.10
2018-08-14T16:46:53.949Z,1.07
2018-08-14T16:49:23.273Z,0.83
2018-08-14T16:51:52.659Z,1.02
2018-08-14T16:54:21.978Z,1.00
2018-08-14T16:56:51.426Z,1.40
2018-08-14T16:59:20.792Z,1.10
2018-08-14T17:01:50.060Z,1.60
2018-08-14T17:04:19.380Z,1.20
2018-08-14T17:06:48.705Z,1.10
2018-08-14T17:09:18.041Z,1.20
2018-08-14T17:11:47.437Z,1.30
2018-08-14T17:14:16.811Z,1.30
2018-08-14T17:16:46.086Z,1.10
2018-08-14T17:19:15.364Z,1.40
2018-08-14T17:21:43.043Z,1.50
2018-08-14T17:24:12.351Z,1.00
2018-08-14T17:26:41.723Z,1.10
2018-08-14T17:29:11.119Z,1.30
2018-08-14T17:31:40.462Z,1.30
2018-08-14T17:34:09.746Z,1.20
2018-08-14T17:36:39.062Z,1.30
2018-08-14T17:39:14.592Z,1.20
2018-08-14T17:41:49.815Z,1.30
2018-08-14T17:44:19.341Z,1.10
2018-08-14T17:46:48.737Z,1.20
2018-08-14T17:49:18.034Z,1.27
2018-08-14T17:51:47.371Z,1.10
2018-08-14T17:54:16.693Z,1.20
2018-08-14T17:56:46.033Z,1.40
2018-08-14T17:59:15.340Z,1.70
2018-08-14T18:01:44.734Z,1.52
2018-08-14T18:04:20.699Z,1.10
2018-08-14T18:06:50.038Z,1.30
2018-08-14T18:09:19.433Z,1.30
2018-08-14T18:11:48.769Z,1.60
2018-08-14T18:14:18.103Z,1.53
2018-08-14T18:16:47.456Z,1.43
2018-08-14T18:19:16.795Z,1.63
2018-08-14T18:21:46.146Z,1.40
2018-08-14T18:24:15.473Z,1.80
2018-08-14T18:26:44.902Z,1.40
2018-08-14T18:29:14.205Z,1.90
2018-08-14T18:31:50.406Z,1.60
2018-08-14T18:34:26.730Z,1.80
2018-08-14T18:37:03.737Z,1.70
2018-08-14T18:39:40.193Z,1.47
2018-08-14T18:42:17.515Z,1.57
2018-08-14T18:44:53.595Z,1.70
2018-08-14T18:47:30.418Z,1.70
2018-08-14T18:50:00.033Z,1.40
2018-08-14T18:52:29.416Z,1.90
2018-08-14T18:54:58.758Z,1.83
2018-08-14T18:57:28.170Z,1.90
2018-08-14T18:59:57.526Z,1.80
2018-08-14T19:02:26.916Z,1.37
2018-08-14T19:04:56.380Z,1.80
2018-08-14T19:07:25.847Z,1.43
2018-08-14T19:09:55.319Z,1.70
2018-08-14T19:12:24.676Z,1.43
2018-08-14T19:14:54.016Z,2.17
2018-08-14T19:17:23.340Z,1.70
2018-08-14T19:19:52.685Z,1.77
2018-08-14T19:22:22.011Z,1.40
2018-08-14T19:25:00.874Z,1.60
2018-08-14T19:27:30.454Z,1.77
2018-08-14T19:29:59.740Z,1.80
2018-08-14T19:32:29.100Z,1.40
2018-08-14T19:34:58.460Z,1.47
2018-08-14T19:37:27.788Z,1.80
2018-08-14T19:39:57.147Z,1.83
2018-08-14T19:42:26.477Z,1.53
2018-08-14T19:44:55.797Z,1.83
2018-08-14T19:47:25.203Z,1.75
2018-08-14T19:49:54.654Z,1.73
2018-08-14T19:52:23.951Z,1.73
2018-08-14T19:54:53.321Z,1.50
2018-08-14T19:57:22.806Z,1.60
2018-08-14T19:59:52.273Z,1.70
2018-08-14T20:02:21.644Z,1.60
2018-08-14T20:04:51.120Z,2.00
2018-08-14T20:07:20.851Z,1.90
2018-08-14T20:09:50.258Z,1.33
2018-08-14T20:12:19.618Z,1.37
2018-08-14T20:14:48.950Z,1.60
2018-08-14T20:17:18.323Z,1.40
2018-08-14T20:19:47.661Z,1.50
2018-08-14T20:22:18.098Z,2.00
2018-08-14T20:24:47.499Z,1.70
2018-08-14T20:27:16.876Z,1.50
2018-08-14T20:29:46.218Z,1.57
2018-08-14T20:32:15.580Z,1.53
2018-08-14T20:34:44.936Z,1.80
2018-08-14T20:37:14.249Z,1.50
2018-08-14T20:39:43.605Z,1.85
2018-08-14T20:42:12.918Z,1.87
2018-08-14T20:44:42.213Z,1.17
2018-08-14T20:47:11.567Z,1.60
2018-08-14T20:49:40.903Z,1.43
2018-08-14T20:52:10.269Z,1.55
2018-08-14T20:54:39.586Z,1.67
2018-08-14T20:57:08.897Z,1.50
2018-08-14T20:59:38.298Z,1.53
2018-08-14T21:02:07.640Z,1.70
2018-08-14T21:04:36.982Z,1.60
2018-08-14T21:07:06.319Z,1.47
2018-08-14T21:09:35.640Z,1.80
2018-08-14T21:12:05.325Z,1.60
2018-08-14T21:14:34.668Z,1.40
2018-08-14T21:17:03.970Z,1.70
2018-08-14T21:19:33.332Z,1.70
2018-08-14T21:22:02.636Z,1.90
2018-08-14T21:24:32.373Z,1.50
2018-08-14T21:27:02.379Z,1.40
2018-08-14T21:29:32.359Z,1.30
2018-08-14T21:32:02.355Z,1.65
2018-08-14T21:34:32.497Z,1.40
2018-08-14T21:37:02.363Z,1.72
2018-08-14T21:39:32.411Z,1.77
2018-08-14T21:42:02.412Z,1.47
2018-08-14T21:44:32.439Z,1.30
2018-08-14T21:47:02.493Z,1.30
2018-08-14T21:49:32.484Z,1.35
2018-08-14T21:52:02.431Z,1.17
2018-08-14T21:54:32.473Z,1.22
2018-08-14T21:57:02.515Z,1.15
2018-08-14T21:59:32.439Z,1.45
2018-08-14T22:02:02.592Z,1.37
2018-08-14T22:04:32.598Z,1.42
2018-08-14T22:07:02.467Z,1.40
2018-08-14T22:09:32.606Z,1.30
2018-08-14T22:12:02.445Z,1.42
2018-08-14T22:14:32.466Z,1.42
2018-08-14T22:17:02.525Z,1.35
2018-08-14T22:19:32.502Z,1.30
2018-08-14T22:22:02.502Z,1.37
2018-08-14T22:24:32.739Z,1.80
2018-08-14T22:27:02.562Z,1.55
2018-08-14T22:29:32.575Z,1.60
2018-08-14T22:32:02.513Z,1.40
2018-08-14T22:34:32.570Z,1.50
2018-08-14T22:37:02.541Z,1.50
2018-08-14T22:39:39.177Z,1.65
2018-08-14T22:42:08.529Z,1.42
2018-08-14T22:44:37.887Z,1.50
2018-08-14T22:47:07.426Z,1.52
2018-08-14T22:49:36.759Z,1.15
2018-08-14T22:52:06.120Z,2.47
2018-08-14T22:54:35.572Z,1.70
2018-08-14T22:57:04.870Z,1.70
2018-08-14T22:59:34.243Z,2.20
2018-08-14T23:02:03.705Z,1.80
2018-08-14T23:04:33.123Z,1.83
2018-08-14T23:07:02.622Z,1.70
2018-08-14T23:09:32.621Z,2.33
2018-08-14T23:12:02.647Z,1.65
2018-08-14T23:14:32.707Z,1.60
2018-08-14T23:17:02.700Z,1.92
2018-08-14T23:19:32.699Z,1.80
2018-08-14T23:22:02.767Z,1.60
2018-08-14T23:24:32.729Z,1.60
2018-08-14T23:27:02.682Z,2.03
2018-08-14T23:29:32.795Z,2.08
2018-08-14T23:32:02.849Z,2.10
2018-08-14T23:34:32.788Z,1.87
2018-08-14T23:37:02.720Z,1.80
2018-08-14T23:39:32.793Z,2.60
2018-08-14T23:42:02.689Z,1.73
2018-08-14T23:44:32.810Z,1.67
2018-08-14T23:47:02.825Z,1.83
2018-08-14T23:49:32.728Z,1.90
2018-08-14T23:52:02.782Z,1.92
2018-08-14T23:54:32.779Z,2.05
2018-08-14T23:57:02.786Z,1.90
2018-08-14T23:59:32.841Z,1.80
